Ibotirama, Brazil
Current Conditions -  °F | °C
As of 2:00 PM on Friday 28 Nov 2014 (Local Time) from SBQV Reporting Station
Few Clouds Few Clouds  
Wind Chill: 86°   Ceiling: Unl
Heat Index: 86°   Visibility: 6mi
Dew Point: 61°   Wind: 5mph
Humidity: 43%   Direction: 340°NNW
Pressure: 30.03"   Gusts: NA
Location:  12.19°S, 43.22°W
Report Text: SBQV 281700Z 34004KT 9999 FEW030 30/16 Q1017
Loading
Personal Weather Stations






























Interactive Weather Map New forecast layout! Learn more

10-Day Weather Forecast

Advertisements
Track Severe Weather on mobile